createdAt,value
2017-12-19T00:02:27.813Z,11.57
2017-12-19T00:04:57.774Z,12.37
2017-12-19T00:07:25.250Z,12.82
2017-12-19T00:09:54.706Z,13.82
2017-12-19T00:12:22.193Z,12.07
2017-12-19T00:14:51.412Z,11.77
2017-12-19T00:17:19.678Z,10.63
2017-12-19T00:19:47.466Z,12.05
2017-12-19T00:22:14.947Z,11.27
2017-12-19T00:24:42.442Z,13.00
2017-12-19T00:27:09.918Z,10.55
2017-12-19T00:29:38.168Z,11.00
2017-12-19T00:32:05.831Z,10.88
2017-12-19T00:34:33.939Z,11.55
2017-12-19T00:37:02.199Z,12.07
2017-12-19T00:39:29.709Z,10.85
2017-12-19T00:41:57.198Z,13.48
2017-12-19T00:44:24.683Z,12.57
2017-12-19T00:46:53.018Z,10.70
2017-12-19T00:49:20.465Z,10.75
2017-12-19T00:51:47.941Z,11.88
2017-12-19T00:54:15.446Z,11.60
2017-12-19T00:56:42.930Z,11.10
2017-12-19T00:59:10.632Z,11.00
2017-12-19T01:01:38.667Z,11.27
2017-12-19T01:04:06.160Z,10.68
2017-12-19T01:06:33.642Z,11.00
2017-12-19T01:09:03.498Z,10.23
2017-12-19T01:11:30.988Z,10.75
2017-12-19T01:13:58.469Z,11.75
2017-12-19T01:16:28.022Z,10.18
2017-12-19T01:18:55.501Z,9.70
2017-12-19T01:21:22.987Z,10.15
2017-12-19T01:23:51.317Z,12.20
2017-12-19T01:26:19.732Z,12.10
2017-12-19T01:28:48.649Z,10.65
2017-12-19T01:31:16.985Z,12.52
2017-12-19T01:33:44.559Z,10.35
2017-12-19T01:36:12.042Z,11.05
2017-12-19T01:38:40.318Z,13.85
2017-12-19T01:41:08.577Z,12.35
2017-12-19T01:43:36.059Z,12.80
2017-12-19T01:46:04.310Z,9.80
2017-12-19T01:48:31.786Z,11.85
2017-12-19T01:51:00.048Z,12.15
2017-12-19T01:53:27.538Z,11.02
2017-12-19T01:55:55.018Z,10.98
2017-12-19T01:58:22.530Z,9.70
2017-12-19T02:00:50.851Z,10.82
2017-12-19T02:03:18.557Z,10.65
2017-12-19T02:05:46.046Z,10.95
2017-12-19T02:08:14.823Z,10.73
2017-12-19T02:10:43.071Z,9.82
2017-12-19T02:13:10.550Z,11.20
2017-12-19T02:15:38.037Z,9.65
2017-12-19T02:18:05.570Z,8.80
2017-12-19T02:20:34.022Z,10.40
2017-12-19T02:23:01.663Z,8.60
2017-12-19T02:25:29.134Z,9.75
2017-12-19T02:27:57.402Z,10.27
2017-12-19T02:30:25.438Z,9.80
2017-12-19T02:32:52.986Z,10.07
2017-12-19T02:35:21.236Z,8.77
2017-12-19T02:37:48.725Z,10.15
2017-12-19T02:40:16.977Z,8.80
2017-12-19T02:42:56.396Z,12.70
2017-12-19T02:45:23.929Z,9.85
2017-12-19T02:47:51.366Z,10.88
2017-12-19T02:50:19.049Z,13.10
2017-12-19T02:52:46.547Z,14.75
2017-12-19T02:55:14.824Z,13.23
2017-12-19T02:57:42.327Z,13.55
2017-12-19T03:00:09.973Z,13.25
2017-12-19T03:02:38.226Z,11.35
2017-12-19T03:05:05.736Z,12.13
2017-12-19T03:07:34.048Z,11.93
2017-12-19T03:12:35.542Z,12.15
2017-12-19T03:15:03.939Z,13.25
2017-12-19T03:17:32.702Z,12.95
2017-12-19T03:20:00.194Z,13.57
2017-12-19T03:22:28.251Z,13.90
2017-12-19T03:24:56.500Z,13.13
2017-12-19T03:27:23.994Z,12.55
2017-12-19T03:29:52.251Z,14.77
2017-12-19T03:32:20.637Z,13.20
2017-12-19T03:34:48.141Z,14.50
2017-12-19T03:37:15.636Z,15.23
2017-12-19T03:39:43.114Z,14.00
2017-12-19T03:42:11.386Z,16.27
2017-12-19T03:44:40.799Z,15.50
2017-12-19T03:47:09.055Z,15.55
2017-12-19T03:49:36.574Z,15.80
2017-12-19T03:52:04.047Z,17.80
2017-12-19T03:54:34.977Z,18.62
2017-12-19T03:57:02.467Z,17.10
2017-12-19T03:59:30.857Z,16.30
2017-12-19T04:01:58.338Z,20.08
2017-12-19T04:04:25.877Z,17.85
2017-12-19T04:06:54.141Z,17.23
2017-12-19T04:09:23.799Z,19.12
2017-12-19T04:11:51.301Z,18.05
2017-12-19T04:14:19.147Z,17.25
2017-12-19T04:16:46.634Z,19.25
2017-12-19T04:19:14.433Z,17.27
2017-12-19T04:21:42.687Z,17.75
2017-12-19T04:24:10.166Z,21.60
2017-12-19T04:26:38.551Z,20.30
2017-12-19T04:29:06.035Z,20.55
2017-12-19T04:31:33.527Z,20.85
2017-12-19T04:34:01.866Z,18.30
2017-12-19T04:36:32.051Z,19.77
2017-12-19T04:39:00.298Z,18.98
2017-12-19T04:41:28.751Z,18.37
2017-12-19T04:43:56.239Z,17.60
2017-12-19T04:46:23.735Z,19.40
2017-12-19T04:48:52.306Z,17.77
2017-12-19T04:51:20.555Z,16.12
2017-12-19T04:53:48.306Z,18.70
2017-12-19T04:56:16.649Z,22.17
2017-12-19T04:58:44.476Z,23.95
2017-12-19T05:01:11.958Z,20.12
2017-12-19T05:03:39.501Z,27.05
2017-12-19T05:06:06.979Z,28.77
2017-12-19T05:08:35.218Z,32.80
2017-12-19T05:11:02.714Z,34.28
2017-12-19T05:13:30.198Z,31.33
2017-12-19T05:15:58.594Z,32.45
2017-12-19T05:18:26.114Z,39.53
2017-12-19T05:20:54.046Z,31.45
2017-12-19T05:23:21.788Z,37.90
2017-12-19T05:25:51.347Z,33.47
2017-12-19T05:28:19.594Z,30.40
2017-12-19T05:30:47.078Z,33.10
2017-12-19T05:33:14.610Z,34.35
2017-12-19T05:35:43.859Z,31.98
2017-12-19T05:38:11.370Z,28.95
2017-12-19T05:40:38.886Z,32.05
2017-12-19T05:43:06.366Z,31.60
2017-12-19T05:45:35.890Z,29.80
2017-12-19T05:48:03.607Z,31.50
2017-12-19T05:50:31.090Z,30.05
2017-12-19T05:52:59.695Z,31.05
2017-12-19T05:55:28.402Z,27.92
2017-12-19T05:57:57.026Z,32.55
2017-12-19T06:00:24.729Z,29.00
2017-12-19T06:02:52.399Z,28.12
2017-12-19T06:05:19.882Z,27.52
2017-12-19T06:07:48.187Z,29.35
2017-12-19T06:10:16.226Z,29.27
2017-12-19T06:12:44.544Z,28.38
2017-12-19T06:15:12.020Z,26.60
2017-12-19T06:17:39.512Z,28.95
2017-12-19T06:20:07.818Z,26.02
2017-12-19T06:22:35.300Z,29.55
2017-12-19T06:25:02.854Z,28.15
2017-12-19T06:27:30.318Z,27.58
2017-12-19T06:29:57.832Z,27.45
2017-12-19T06:32:26.698Z,25.75
2017-12-19T06:34:54.585Z,26.98
2017-12-19T06:37:22.106Z,25.48
2017-12-19T06:39:49.614Z,26.73
2017-12-19T06:42:18.527Z,25.83
2017-12-19T06:44:46.920Z,26.08
2017-12-19T06:47:14.426Z,28.23
2017-12-19T06:49:43.487Z,27.50
2017-12-19T06:52:11.613Z,28.12
2017-12-19T06:54:40.333Z,26.65
2017-12-19T06:57:07.822Z,25.52
2017-12-19T06:59:35.345Z,27.00
2017-12-19T07:02:03.483Z,27.58
2017-12-19T07:04:31.738Z,30.85
2017-12-19T07:06:59.221Z,27.98
2017-12-19T07:09:29.539Z,32.78
2017-12-19T07:11:57.035Z,31.35
2017-12-19T07:14:25.182Z,32.70
2017-12-19T07:16:53.446Z,33.75
2017-12-19T07:19:22.711Z,33.08
2017-12-19T07:21:50.197Z,32.05
2017-12-19T07:24:19.958Z,32.45
2017-12-19T07:26:47.451Z,34.63
2017-12-19T07:29:15.961Z,31.87
2017-12-19T07:31:44.230Z,32.42
2017-12-19T07:34:13.846Z,35.00
2017-12-19T07:36:42.093Z,34.55
2017-12-19T07:39:10.760Z,36.65
2017-12-19T07:41:38.246Z,37.95
2017-12-19T07:44:07.134Z,35.13
2017-12-19T07:46:35.572Z,37.80
2017-12-19T07:49:03.067Z,38.70
2017-12-19T07:51:30.559Z,38.00
2017-12-19T07:53:59.026Z,35.13
2017-12-19T07:56:26.511Z,36.45
2017-12-19T07:58:54.030Z,33.80
2017-12-19T08:01:21.542Z,31.05
2017-12-19T08:03:49.317Z,29.98
2017-12-19T08:06:16.878Z,31.48
2017-12-19T08:08:45.257Z,29.73
2017-12-19T08:11:12.745Z,30.50
2017-12-19T08:13:40.240Z,29.02
2017-12-19T08:16:08.506Z,26.80
2017-12-19T08:18:36.247Z,28.10
2017-12-19T08:21:03.731Z,26.52
2017-12-19T08:23:32.190Z,23.08
2017-12-19T08:25:59.674Z,24.40
2017-12-19T08:28:28.905Z,23.80
2017-12-19T08:30:56.939Z,24.60
2017-12-19T08:33:25.361Z,22.87
2017-12-19T08:35:52.851Z,23.35
2017-12-19T08:38:20.930Z,23.30
2017-12-19T08:40:48.807Z,21.62
2017-12-19T08:43:16.286Z,22.30
2017-12-19T08:45:43.826Z,18.98
2017-12-19T08:48:12.134Z,19.67
2017-12-19T08:50:41.350Z,20.30
2017-12-19T08:53:09.803Z,19.33
2017-12-19T08:55:38.830Z,21.10
2017-12-19T08:58:07.918Z,22.30
2017-12-19T09:00:35.422Z,21.20
2017-12-19T09:03:02.903Z,20.73
2017-12-19T09:05:30.411Z,21.08
2017-12-19T09:07:57.909Z,22.60
2017-12-19T09:10:25.756Z,19.65
2017-12-19T09:12:55.759Z,20.35
2017-12-19T09:15:23.263Z,19.40
2017-12-19T09:17:52.155Z,21.70
2017-12-19T09:20:19.657Z,20.35
2017-12-19T09:22:47.150Z,20.62
2017-12-19T09:25:14.637Z,21.12
2017-12-19T09:27:42.896Z,20.20
2017-12-19T09:30:10.396Z,21.70
2017-12-19T09:32:38.242Z,23.60
2017-12-19T09:35:06.502Z,21.65
2017-12-19T09:37:35.339Z,22.42
2017-12-19T09:40:03.052Z,22.65
2017-12-19T09:42:31.744Z,22.17
2017-12-19T09:45:01.159Z,22.45
2017-12-19T09:47:29.742Z,22.37
2017-12-19T09:49:57.991Z,20.98
2017-12-19T09:52:26.282Z,23.15
2017-12-19T09:54:54.478Z,21.85
2017-12-19T09:57:22.203Z,24.20
2017-12-19T09:59:50.150Z,25.25
2017-12-19T10:02:17.629Z,23.38
2017-12-19T10:04:45.114Z,23.00
2017-12-19T10:07:13.217Z,22.05
2017-12-19T10:09:41.808Z,23.83
2017-12-19T10:12:09.633Z,19.90
2017-12-19T10:14:37.128Z,20.35
2017-12-19T10:17:04.620Z,20.88
2017-12-19T10:19:32.441Z,18.87
2017-12-19T10:22:00.051Z,21.10
2017-12-19T10:24:28.338Z,19.98
2017-12-19T10:26:56.989Z,22.65
2017-12-19T10:29:25.116Z,22.02
2017-12-19T10:31:53.378Z,19.33
2017-12-19T10:34:20.858Z,19.20
2017-12-19T10:36:50.822Z,20.70
2017-12-19T10:39:19.849Z,19.25
2017-12-19T10:41:49.091Z,20.90
2017-12-19T10:44:17.207Z,21.52
2017-12-19T10:46:44.687Z,24.10
2017-12-19T10:49:12.170Z,22.60
2017-12-19T10:51:39.682Z,24.08
2017-12-19T10:54:08.426Z,23.08
2017-12-19T10:56:35.906Z,22.50
2017-12-19T10:59:04.782Z,22.48
2017-12-19T11:01:33.190Z,23.35
2017-12-19T11:04:01.310Z,22.27
2017-12-19T11:06:29.135Z,25.05
2017-12-19T11:08:58.030Z,23.10
2017-12-19T11:11:26.864Z,21.30
2017-12-19T11:13:54.498Z,22.95
2017-12-19T11:16:22.031Z,26.40
2017-12-19T11:18:50.489Z,28.05
2017-12-19T11:21:18.757Z,27.90
2017-12-19T11:23:46.230Z,29.65
2017-12-19T11:26:15.078Z,28.80
2017-12-19T11:28:45.471Z,28.33
2017-12-19T11:31:12.951Z,29.30
2017-12-19T11:33:42.132Z,28.38
2017-12-19T11:36:09.967Z,26.52
2017-12-19T11:38:39.492Z,27.83
2017-12-19T11:41:08.106Z,25.55
2017-12-19T11:43:36.682Z,28.83
2017-12-19T11:46:04.160Z,27.37
2017-12-19T11:48:33.666Z,30.85
2017-12-19T11:51:02.232Z,27.75
2017-12-19T11:53:31.096Z,29.48
2017-12-19T11:55:58.583Z,30.33
2017-12-19T11:58:26.847Z,28.20
2017-12-19T12:00:54.330Z,30.70
2017-12-19T12:03:23.190Z,28.10
2017-12-19T12:05:50.700Z,32.53
2017-12-19T12:08:18.187Z,30.12
2017-12-19T12:10:46.922Z,27.10
2017-12-19T12:13:15.423Z,28.73
2017-12-19T12:15:43.741Z,28.20
2017-12-19T12:18:12.746Z,28.45
2017-12-19T12:20:41.194Z,31.42
2017-12-19T12:23:08.679Z,29.10
2017-12-19T12:25:37.086Z,26.85
2017-12-19T12:28:06.022Z,28.52
2017-12-19T12:30:34.396Z,28.52
2017-12-19T12:33:02.854Z,27.70
2017-12-19T12:35:30.355Z,31.25
2017-12-19T12:37:58.744Z,29.92
2017-12-19T12:40:27.062Z,28.10
2017-12-19T12:42:55.854Z,26.02
2017-12-19T12:45:25.318Z,26.45
2017-12-19T12:47:57.607Z,25.42
2017-12-19T12:50:25.939Z,28.25
2017-12-19T12:52:53.463Z,27.35
2017-12-19T12:55:21.849Z,26.52
2017-12-19T12:57:50.320Z,25.08
2017-12-19T13:00:18.566Z,21.27
2017-12-19T13:02:47.202Z,23.62
2017-12-19T13:05:14.730Z,22.83
2017-12-19T13:07:43.142Z,20.02
2017-12-19T13:10:13.154Z,20.80
2017-12-19T13:12:41.470Z,20.77
2017-12-19T13:15:08.950Z,22.25
2017-12-19T13:17:37.282Z,21.08
2017-12-19T13:20:06.109Z,22.00
2017-12-19T13:22:33.853Z,22.08
2017-12-19T13:25:02.159Z,22.85
2017-12-19T13:27:29.910Z,21.95
2017-12-19T13:29:57.383Z,23.38
2017-12-19T13:32:24.878Z,24.55
2017-12-19T13:34:53.154Z,22.08
2017-12-19T13:37:21.674Z,20.90
2017-12-19T13:39:49.771Z,21.90
2017-12-19T13:42:17.829Z,21.40
2017-12-19T13:44:46.103Z,21.08
2017-12-19T13:47:13.596Z,21.45
2017-12-19T13:49:41.914Z,18.95
2017-12-19T13:52:10.452Z,23.52
2017-12-19T13:54:39.787Z,22.05
2017-12-19T13:57:07.903Z,22.65
2017-12-19T13:59:35.387Z,21.98
2017-12-19T14:02:02.884Z,21.00
2017-12-19T14:04:30.406Z,26.92
2017-12-19T14:06:59.371Z,20.60
2017-12-19T14:09:27.962Z,20.25
2017-12-19T14:11:58.495Z,19.62
2017-12-19T14:14:26.219Z,20.88
2017-12-19T14:16:53.708Z,23.00
2017-12-19T14:19:21.212Z,22.70
2017-12-19T14:21:49.487Z,21.25
2017-12-19T14:24:18.668Z,21.65
2017-12-19T14:26:47.938Z,19.52
2017-12-19T14:29:16.698Z,22.25
2017-12-19T14:31:44.778Z,23.35
2017-12-19T14:34:12.286Z,23.67
2017-12-19T14:36:39.828Z,23.23
2017-12-19T14:39:07.585Z,23.98
2017-12-19T14:41:35.234Z,24.65
2017-12-19T14:44:05.371Z,24.27
2017-12-19T14:46:32.850Z,23.87
2017-12-19T14:49:01.307Z,22.55
2017-12-19T14:51:28.790Z,23.65
2017-12-19T14:53:56.266Z,23.48
2017-12-19T14:56:24.542Z,25.27
2017-12-19T14:58:52.784Z,23.08
2017-12-19T15:01:20.506Z,22.40
2017-12-19T15:03:48.620Z,21.05
2017-12-19T15:06:17.031Z,20.27
2017-12-19T15:08:45.274Z,20.90
2017-12-19T15:11:13.294Z,22.58
2017-12-19T15:13:42.198Z,22.13
2017-12-19T15:16:10.590Z,23.10
2017-12-19T15:18:38.132Z,23.12
2017-12-19T15:21:05.626Z,21.00
2017-12-19T15:23:34.530Z,22.58
2017-12-19T15:26:02.054Z,22.55
2017-12-19T15:28:29.586Z,21.15
2017-12-19T15:30:57.425Z,22.42
2017-12-19T15:33:24.933Z,21.02
2017-12-19T15:35:54.082Z,20.80
2017-12-19T15:38:21.554Z,22.55
2017-12-19T15:40:49.835Z,22.17
2017-12-19T15:43:18.086Z,22.75
2017-12-19T15:45:45.571Z,22.50
2017-12-19T15:48:14.185Z,22.10
2017-12-19T15:50:42.468Z,21.58
2017-12-19T15:53:10.502Z,23.60
2017-12-19T15:55:38.763Z,22.77
2017-12-19T15:58:06.879Z,20.92
2017-12-19T16:00:34.431Z,21.75
2017-12-19T16:03:01.951Z,22.00
2017-12-19T16:05:29.442Z,20.65
2017-12-19T16:07:57.270Z,24.00
2017-12-19T16:10:26.118Z,20.65
2017-12-19T16:12:54.553Z,19.23
2017-12-19T16:15:24.186Z,21.52
2017-12-19T16:17:52.210Z,20.85
2017-12-19T16:20:19.710Z,21.75
2017-12-19T16:22:47.547Z,25.05
2017-12-19T16:25:16.243Z,26.35
2017-12-19T16:27:45.763Z,24.58
2017-12-19T16:30:14.010Z,25.83
2017-12-19T16:32:41.538Z,25.92
2017-12-19T16:35:09.900Z,25.00
2017-12-19T16:37:37.730Z,23.50
2017-12-19T16:40:05.226Z,25.52
2017-12-19T16:42:32.923Z,24.37
2017-12-19T16:45:01.203Z,25.30
2017-12-19T16:47:29.052Z,23.15
2017-12-19T16:49:57.340Z,26.42
2017-12-19T16:52:26.857Z,27.60
2017-12-19T16:54:54.391Z,28.73
2017-12-19T16:57:22.768Z,26.27
2017-12-19T16:59:50.333Z,27.35
2017-12-19T17:02:20.831Z,30.08
2017-12-19T17:04:49.475Z,27.40
2017-12-19T17:07:17.765Z,28.17
2017-12-19T17:09:46.189Z,28.23
2017-12-19T17:12:14.454Z,26.65
2017-12-19T17:14:42.278Z,30.17
2017-12-19T17:17:11.767Z,28.45
2017-12-19T17:19:39.251Z,29.92
2017-12-19T17:22:06.748Z,28.17
2017-12-19T17:24:34.270Z,28.62
2017-12-19T17:27:02.585Z,29.27
2017-12-19T17:29:33.598Z,31.85
2017-12-19T17:32:02.781Z,32.45
2017-12-19T17:34:31.635Z,31.17
2017-12-19T17:36:59.910Z,32.92
2017-12-19T17:39:29.170Z,30.67
2017-12-19T17:41:58.677Z,32.30
2017-12-19T17:44:26.930Z,32.55
2017-12-19T17:46:54.446Z,33.25
2017-12-19T17:49:22.160Z,32.47
2017-12-19T17:51:50.368Z,30.12
2017-12-19T17:54:17.895Z,34.28
2017-12-19T17:56:49.768Z,32.83
2017-12-19T17:59:19.239Z,34.38
2017-12-19T18:01:48.506Z,34.35
2017-12-19T18:04:16.022Z,32.60
2017-12-19T18:06:44.314Z,33.05
2017-12-19T18:09:14.133Z,33.88
2017-12-19T18:11:41.848Z,32.97
2017-12-19T18:14:11.914Z,33.63
2017-12-19T18:16:39.619Z,32.15
2017-12-19T18:19:07.368Z,34.67
2017-12-19T18:21:34.874Z,31.20
2017-12-19T18:24:02.360Z,36.25
2017-12-19T18:26:30.061Z,37.85
2017-12-19T18:28:57.562Z,34.80
2017-12-19T18:31:26.399Z,34.53
2017-12-19T18:33:53.882Z,33.45
2017-12-19T18:36:21.375Z,37.63
2017-12-19T18:38:50.192Z,36.83
2017-12-19T18:41:22.679Z,35.58
2017-12-19T18:43:51.662Z,35.42
2017-12-19T18:46:19.146Z,35.42
2017-12-19T18:48:47.446Z,37.17
2017-12-19T18:51:15.238Z,38.03
2017-12-19T18:53:44.210Z,37.95
2017-12-19T18:56:13.353Z,36.25
2017-12-19T18:58:40.838Z,36.00
2017-12-19T19:01:09.661Z,36.10
2017-12-19T19:03:37.198Z,36.60
2017-12-19T19:06:07.252Z,37.13
2017-12-19T19:08:35.498Z,35.42
2017-12-19T19:11:04.104Z,37.17
2017-12-19T19:13:33.132Z,38.53
2017-12-19T19:16:01.153Z,37.15
2017-12-19T19:18:29.445Z,35.97
2017-12-19T19:20:57.015Z,38.85
2017-12-19T19:23:24.571Z,37.85
2017-12-19T19:25:55.854Z,38.55
2017-12-19T19:28:24.807Z,39.67
2017-12-19T19:30:54.315Z,36.63
2017-12-19T19:33:28.368Z,35.80
2017-12-19T19:35:55.965Z,39.78
2017-12-19T19:38:25.223Z,35.67
2017-12-19T19:40:52.809Z,36.97
2017-12-19T19:43:20.388Z,36.53
2017-12-19T19:45:49.716Z,37.15
2017-12-19T19:48:18.838Z,36.85
2017-12-19T19:50:46.425Z,37.72
2017-12-19T19:53:14.801Z,37.10
2017-12-19T19:55:43.738Z,40.97
2017-12-19T19:58:15.366Z,39.03
2017-12-19T20:00:43.512Z,39.90
2017-12-19T20:03:12.417Z,40.40
2017-12-19T20:05:40.668Z,39.40
2017-12-19T20:08:08.183Z,40.00
2017-12-19T20:10:36.707Z,42.88
2017-12-19T20:13:04.532Z,41.37
2017-12-19T20:15:32.039Z,42.08
2017-12-19T20:17:59.526Z,39.90
2017-12-19T20:20:27.822Z,41.83
2017-12-19T20:22:57.002Z,41.05
2017-12-19T20:25:24.830Z,43.03
2017-12-19T20:27:53.198Z,42.47
2017-12-19T20:30:20.714Z,40.25
2017-12-19T20:32:49.108Z,44.55
2017-12-19T20:35:17.515Z,42.65
2017-12-19T20:37:45.016Z,37.90
2017-12-19T20:40:12.502Z,39.90
2017-12-19T20:42:40.096Z,39.05
2017-12-19T20:45:07.611Z,40.55
2017-12-19T20:47:35.098Z,43.38
2017-12-19T20:50:04.167Z,40.35
2017-12-19T20:52:32.383Z,42.05
2017-12-19T20:54:59.884Z,42.00
2017-12-19T20:57:27.366Z,43.97
2017-12-19T20:59:57.794Z,42.70
2017-12-19T21:02:26.186Z,45.97
2017-12-19T21:04:54.495Z,41.75
2017-12-19T21:07:22.731Z,40.22
2017-12-19T21:09:52.278Z,39.60
2017-12-19T21:12:19.764Z,42.05
2017-12-19T21:14:47.270Z,42.05
2017-12-19T21:17:15.881Z,41.72
2017-12-19T21:19:43.365Z,41.55
2017-12-19T21:22:12.537Z,40.97
2017-12-19T21:24:40.237Z,39.10
2017-12-19T21:27:08.590Z,41.22
2017-12-19T21:29:36.446Z,44.30
2017-12-19T21:32:07.346Z,38.55
2017-12-19T21:34:35.598Z,42.78
2017-12-19T21:37:07.690Z,42.55
2017-12-19T21:39:35.933Z,40.90
2017-12-19T21:42:03.414Z,41.42
2017-12-19T21:44:30.918Z,44.30
2017-12-19T21:46:58.402Z,41.42
2017-12-19T21:49:28.010Z,42.72
2017-12-19T21:51:56.575Z,43.70
2017-12-19T21:54:25.874Z,42.53
2017-12-19T21:56:53.354Z,44.45
2017-12-19T21:59:20.862Z,42.20
2017-12-19T22:01:49.606Z,41.63
2017-12-19T22:04:17.759Z,42.50
2017-12-19T22:06:45.294Z,41.20
2017-12-19T22:09:13.134Z,42.95
2017-12-19T22:11:41.050Z,41.95
2017-12-19T22:14:09.362Z,44.20
2017-12-19T22:16:38.295Z,43.45
2017-12-19T22:19:07.359Z,43.15
2017-12-19T22:21:35.654Z,40.60
2017-12-19T22:24:03.899Z,41.30
2017-12-19T22:26:33.290Z,43.22
2017-12-19T22:29:03.350Z,43.42
2017-12-19T22:31:31.606Z,47.03
2017-12-19T22:33:59.326Z,44.28
2017-12-19T22:36:26.835Z,40.85
2017-12-19T22:38:55.254Z,43.15
2017-12-19T22:41:22.747Z,44.85
2017-12-19T22:43:51.605Z,42.65
2017-12-19T22:46:19.094Z,42.42
2017-12-19T22:48:46.924Z,40.63
2017-12-19T22:51:15.919Z,42.13
2017-12-19T22:53:43.639Z,41.95
2017-12-19T22:56:12.072Z,42.13
2017-12-19T22:58:43.601Z,42.28
2017-12-19T23:01:11.439Z,39.88
2017-12-19T23:03:39.159Z,41.15
2017-12-19T23:06:06.660Z,43.33
2017-12-19T23:08:34.419Z,41.33
2017-12-19T23:11:02.579Z,42.75
2017-12-19T23:13:30.170Z,41.13
2017-12-19T23:15:58.728Z,44.58
2017-12-19T23:18:27.068Z,42.17
2017-12-19T23:20:54.587Z,40.45
2017-12-19T23:23:22.058Z,40.28
2017-12-19T23:25:50.543Z,40.83
2017-12-19T23:28:18.802Z,41.85
2017-12-19T23:30:50.102Z,42.42
2017-12-19T23:33:18.514Z,38.88
2017-12-19T23:35:47.258Z,41.35
2017-12-19T23:38:14.750Z,38.83
2017-12-19T23:40:44.571Z,40.45
2017-12-19T23:43:12.782Z,39.25
2017-12-19T23:45:41.037Z,39.15
2017-12-19T23:48:10.003Z,39.20
2017-12-19T23:50:37.495Z,38.92
2017-12-19T23:53:05.321Z,39.92
2017-12-19T23:55:34.815Z,40.67
2017-12-19T23:58:02.297Z,40.42
